Weather observations for the past three days for
COLEMAN
Metric (Imperial)
Date Time (cdt) Wind (kph) Vis. (km) Weather Sky Cond. Temperature (ºC) Relative Humidity Wind Chill (°C) Heat Index (°C) Pressure Precipitation (cm)
Air Dwpt 6 hour altimeter (cm) sea level (mb) 1 hr 3 hr 6 hr
Max. Min.
30 23:15 SE 13 16.09 Fair CLR 29.7 15.7 43% 30 76.2 0.0
30 22:55 SE 17 16.09 Fair CLR 29.9 15.5 42% 30 76.2 0.0
30 22:35 SE 17 16.09 Fair CLR 30.2 14.9 39% 30 76.2 0.0
30 22:15 SE 17 G 28 16.09 Fair CLR 30.8 14.1 36% 30 76.17 0.0
30 21:55 SE 17 16.09 Fair CLR 30.5 13.1 34% 30 76.15 0.0
30 21:35 SE 13 16.09 Fair CLR 30.7 13 34% 30 76.12 0.0
30 21:15 SE 15 16.09 Fair CLR 31.2 13.1 33% 30 76.1 0.0
30 20:55 SE 15 16.09 Fair CLR 31.6 13.5 33% 31 76.07 0.0
30 20:35 SE 13 16.09 Fair CLR 32.2 13.7 32% 31 76.07 0.0
30 20:15 SE 19 16.09 Fair CLR 33 13.7 31% 32 76.05 0.0
30 19:55 SE 19 16.09 Fair CLR 33.6 13.7 30% 33 76.05 0.0
30 19:35 SE 19 16.09 Fair CLR 34.4 13.6 28% 34 76.05 0.0
30 19:15 SE 22 G 30 16.09 Fair CLR 35 13.5 27% 34 76.02 0.0
30 18:55 SE 19 G 26 16.09 Partly Cloudy SCT090 35.2 13.3 37.5 34.3 27% 34 76.02 0.0
30 18:35 S 13 16.09 Partly Cloudy SCT090 36.4 13 24% 35 76.02 0.0
30 18:15 S 11 16.09 Partly Cloudy SCT090 36.9 11.8 22% 36 76.05 0.0
30 17:55 S 20 G 30 16.09 Partly Cloudy SCT090 37 12.5 23% 36 76.05 0.0
30 17:35 S 9 16.09 Fair CLR 37 12.8 23% 36 76.05 0.0
30 17:15 S 15 G 26 16.09 Partly Cloudy SCT085 37.5 12.7 22% 37 76.05 0.0
30 16:55 S 11 16.09 Partly Cloudy SCT085 36.7 12.7 24% 36 76.05 0.0
30 16:35 SE 20 G 28 16.09 Fair CLR 36.7 13.5 25% 36 76.07 0.0
30 16:15 S 13 G 28 16.09 Fair CLR 37 13.8 25% 36 76.1 0.0
30 15:55 S 20 G 26 16.09 Partly Cloudy SCT080 37.1 14.1 25% 37 76.1 0.0
30 15:35 Calm 16.09 Fair CLR 36.8 14.1 26% 36 76.15 0.0
30 15:15 S 19 16.09 Fair CLR 37.2 14.1 25% 37 76.17 0.0
30 14:55 S 15 G 26 16.09 Partly Cloudy SCT070 36.7 13.7 25% 36 76.2 0.0
30 14:35 S 15 16.09 Partly Cloudy SCT070 35.9 14.9 28% 36 76.2 0.0
30 14:15 SW 7 16.09 Fair CLR 35.5 14.8 29% 35 76.23 0.0
30 13:55 S 17 G 26 16.09 Partly Cloudy SCT065 35.9 15.6 30% 36 76.23 0.0
30 13:35 S 9 16.09 Partly Cloudy SCT065 35.1 15.6 31% 35 76.28 0.0
30 13:15 S 13 16.09 Partly Cloudy SCT055 35.4 16.5 32% 36 76.3 0.0
30 12:55 S 15 16.09 Partly Cloudy SCT055 34.5 16.1 34.6 22.1 33% 35 76.33 0.0
30 12:35 S 6 G 26 16.09 Fair CLR 33.6 17.1 37% 34 76.35 0.0
30 12:15 S 17 G 26 16.09 Fair CLR 33.5 17.6 39% 34 76.38 0.0
30 11:55 S 13 16.09 Fair CLR 32.9 17.6 40% 34 76.38 0.0
30 11:35 S 20 G 28 16.09 Fair CLR 32.2 18.2 43% 33 76.4 0.0
30 11:15 S 13 16.09 Fair CLR 31.5 18.1 45% 32 76.4 0.0
30 10:55 SW 9 16.09 Fair CLR 31 18.6 48% 32 76.4 0.0
30 10:35 S 13 16.09 Fair CLR 30.3 19 51% 32 76.4 0.0
30 10:15 SW 11 16.09 Fair CLR 29.4 19.2 54% 31 76.4 0.0
30 09:55 SW 11 16.09 Fair CLR 28.8 19.4 57% 30 76.4 0.0
30 09:35 SW 9 16.09 Fair CLR 27.6 19.2 60% 29 76.4 0.0
30 09:10 S 13 16.09 Fair CLR 27 19.1 62% 28 76.4 0.0
30 08:55 SW 7 16.09 Fair CLR 26.2 19 65% 27 76.4 0.0
30 08:35 S 6 16.09 Fair CLR 25.2 19 69% 26 76.4 0.0
30 08:15 S 6 16.09 Fair CLR 24.1 18.8 72% 25 76.38 0.0
30 07:55 S 7 16.09 Fair CLR 23.2 18.5 75% 76.35 0.0
30 07:35 Calm 16.09 Fair CLR 22.5 18.5 78% 76.35 0.0
30 07:10 S 6 16.09 Fair CLR 22.1 18.1 78% 76.33 0.0
30 06:55 S 7 16.09 Fair CLR 22.3 18 27 22.1 77% 76.3 0.0
30 06:35 S 7 16.09 Fair CLR 22.5 18 76% 76.3 0.0
30 06:15 S 7 16.09 Fair CLR 22.4 18 76% 76.28 0.0
30 05:55 S 6 16.09 Fair CLR 22.2 17.6 75% 76.28 0.0
30 05:35 S 7 16.09 Fair CLR 22.2 17.5 75% 76.28 0.0
30 05:15 S 6 16.09 Fair CLR 23.1 17.5 71% 76.28 0.0
30 04:35 S 7 16.09 Fair CLR 24.3 17.5 66% 25 76.28 0.0
30 04:15 S 7 16.09 Fair CLR 24.3 17.3 65% 25 76.28 0.0
30 03:55 S 9 16.09 Fair CLR 24.5 17.3 64% 26 76.28 0.0
30 03:35 S 7 16.09 Fair CLR 24.6 17.2 64% 26 76.28 0.0
30 03:15 S 9 16.09 Fair CLR 25 17.1 62% 26 76.28 0.0
30 02:55 S 7 16.09 Fair CLR 24.6 17.1 63% 26 76.28 0.0
30 02:35 S 7 16.09 Partly Cloudy SCT002 24.5 17.2 64% 26 76.28 0.0
30 02:10 S 6 16.09 Partly Cloudy SCT002 25.2 17.2 61% 26 76.28 0.0
30 01:55 S 7 16.09 Fair CLR 25.6 17 59% 27 76.28 0.0
30 01:35 S 7 16.09 Fair CLR 26.2 17 57% 27 76.28 0.0
30 01:15 S 7 16.09 Fair CLR 26.5 17 56% 27 76.28 0.0
30 00:55 S 7 16.09 Fair CLR 27.1 16.8 35.4 27.1 53% 28 76.28 0.0
30 00:35 S 9 16.09 Fair CLR 27.7 16.7 51% 28 76.28 0.0
30 00:15 S 11 16.09 Fair CLR 28.2 16.6 49% 29 76.28 0.0
29 23:55 S 11 16.09 Fair CLR 28.7 16.5 48% 29 76.28 0.0
29 23:35 S 17 16.09 Fair CLR 29.2 16.2 45% 29 76.28 0.0
29 23:15 S 15 16.09 Partly Cloudy SCT002 29.8 16.2 44% 30 76.28 0.0
29 22:55 S 17 16.09 Partly Cloudy SCT002 30.1 16.1 43% 30 76.28 0.0
29 22:35 SE 17 16.09 Fair CLR 30.5 16 42% 30 76.28 0.0
29 22:15 SE 17 16.09 Fair CLR 30.6 15.8 41% 31 76.25 0.0
29 21:55 SE 15 16.09 Fair CLR 31 15.5 39% 31 76.23 0.0
29 21:35 SE 15 16.09 Fair CLR 31 15.3 39% 31 76.23 0.0
29 21:15 SE 11 16.09 Fair CLR 31 14.8 37% 31 76.2 0.0
29 20:55 SE 13 16.09 Fair CLR 31.6 14.5 35% 31 76.17 0.0
29 20:35 SE 15 16.09 Fair CLR 31.9 14.5 35% 31 76.17 0.0
29 20:15 SE 17 16.09 Fair CLR 32.7 14.3 33% 32 76.15 0.0
29 19:55 SE 17 16.09 Fair CLR 33.5 14.1 31% 33 76.15 0.0
29 19:35 SE 17 16.09 Fair CLR 34.5 13.8 29% 34 76.15 0.0
29 19:15 SE 20 G 31 16.09 Fair CLR 35 13.9 28% 34 76.15 0.0
29 18:55 SE 17 16.09 Partly Cloudy SCT090 35.6 13.5 37.5 34.8 26% 35 76.12 0.0
29 18:35 SE 20 G 28 16.09 Fair CLR 36.3 13.6 26% 36 76.12 0.0
29 18:15 SE 17 G 26 16.09 Fair CLR 36.5 13.6 25% 36 76.12 0.0
29 17:55 SE 13 16.09 Fair CLR 36.9 13.6 25% 36 76.12 0.0
29 17:35 SE 9 16.09 Partly Cloudy SCT085 36.7 13.1 24% 36 76.12 0.0
29 17:15 S 19 G 28 16.09 Partly Cloudy SCT085 36.8 13.6 25% 36 76.15 0.0
29 16:55 S 13 16.09 Partly Cloudy SCT080 36.5 14.1 26% 36 76.15 0.0
29 16:35 SE 19 G 26 16.09 Partly Cloudy SCT080 37.1 14.4 26% 37 76.17 0.0
29 16:15 SE 13 16.09 Fair CLR 37.3 14.5 26% 37 76.2 0.0
29 15:55 S 13 16.09 Fair CLR 35.6 14.6 28% 35 76.23 0.0
29 15:35 SW 11 G 26 16.09 Fair CLR 37.3 14.6 26% 37 76.25 0.0
29 15:15 S 17 16.09 Fair CLR 36.8 13.7 25% 36 76.28 0.0
29 14:55 S 13 G 28 16.09 Fair CLR 36.7 14.1 26% 36 76.3 0.0
29 14:35 W 7 16.09 Fair CLR 36.4 14 26% 36 76.33 0.0
29 14:15 E 7 16.09 Partly Cloudy SCT070 36.3 14.2 27% 36 76.35 0.0
29 13:55 E 15 16.09 Fair CLR 35.8 13.6 26% 35 76.35 0.0
29 13:35 SE 17 G 26 16.09 Fair CLR 35.4 13.8 27% 35 76.38 0.0
29 13:15 SE 13 G 26 16.09 Fair CLR 35.2 15.3 30% 35 76.4 0.0
29 12:55 SW 11 16.09 Fair CLR 35.2 15.1 35.2 20.6 30% 35 76.43 0.0
29 12:35 S 6 16.09 Fair CLR 34.8 15.8 32% 35 76.43 0.0
29 12:15 Calm 16.09 Fair CLR 34.1 16.6 35% 34 76.45 0.0
29 11:55 S 11 16.09 Fair CLR 34 16.9 36% 34 76.45 0.0
29 11:35 Calm 16.09 Fair CLR 33.4 16.6 37% 34 76.48 0.0
29 11:15 SW 9 16.09 Fair CLR 32.9 18.4 42% 34 76.48 0.0
29 10:55 W 9 16.09 Fair CLR 32.3 18.6 44% 34 76.48 0.0
29 10:35 SW 7 16.09 Fair CLR 31.5 19.2 48% 33 76.48 0.0
29 10:15 W 13 16.09 Fair CLR 31.1 19.6 50% 33 76.48 0.0
29 09:55 W 6 16.09 Fair CLR 28.8 19 55% 30 76.48 0.0
29 09:35 Calm 16.09 Fair CLR 27.7 19.7 62% 29 76.5 0.0
29 09:15 Calm 16.09 Fair CLR 25.7 20.1 71% 27 76.5 0.0
29 08:55 Calm 16.09 Fair CLR 24.3 20.2 78% 25 76.5 0.0
29 08:35 Calm 16.09 Fair CLR 23 19.7 82% 76.5 0.0
29 08:15 Calm 16.09 Fair CLR 22 19.7 87% 76.5 0.0
29 07:55 Calm 16.09 Fair CLR 21.2 19.3 89% 76.5 0.0
29 07:35 Calm 16.09 Fair CLR 21 18.9 88% 76.48 0.0
29 07:15 Calm 16.09 Fair CLR 21 19.1 89% 76.48 0.0
29 06:55 Calm 16.09 Fair CLR 20.6 19 24.7 20.4 91% 76.45 0.0
29 06:35 Calm 16.09 Fair CLR 20.5 19 91% 76.45 0.0
29 06:15 Calm 16.09 Fair CLR 20.5 18.9 91% 76.45 0.0
29 05:55 SE 9 16.09 Fair CLR 20.6 18.8 89% 76.43 0.0
29 05:35 Calm 16.09 Fair CLR 20.9 19 89% 76.4 0.0
29 05:15 Calm 16.09 Fair CLR 21.1 19.2 89% 76.4 0.0
29 04:55 Calm 16.09 Fair CLR 21.5 19.2 87% 76.4 0.0
29 04:35 Calm 16.09 Fair CLR 21.5 19.2 87% 76.4 0.0
29 04:15 Calm 16.09 Fair CLR 22 19.5 86% 76.4 0.0
29 03:55 Calm 16.09 Fair CLR 22.5 19.5 83% 76.4 0.0
29 03:35 Calm 16.09 Fair CLR 22.6 19.5 83% 76.4 0.0
29 03:15 Calm 16.09 Fair CLR 22.5 19.6 84% 76.4 0.0
29 02:55 Calm 16.09 Fair CLR 23 19.6 81% 76.43 0.0
29 02:35 Calm 16.09 Fair CLR 23.1 19.6 81% 76.43 0.0
29 02:15 Calm 16.09 Fair CLR 23.6 19.6 78% 76.43 0.0
29 01:55 Calm 16.09 Fair CLR 24 19.6 77% 25 76.4 0.0
29 01:35 Calm 16.09 Fair CLR 24.1 19.8 77% 25 76.43 0.0
29 01:15 Calm 16.09 Fair CLR 24.5 19.8 75% 25 76.43 0.0
29 00:55 S 9 16.09 Fair CLR 24.7 20 31 24.7 75% 26 76.43 0.0
29 00:35 S 9 16.09 Fair CLR 25.2 19.8 72% 26 76.45 0.0
29 00:15 S 13 16.09 Fair CLR 25.9 19.8 69% 27 76.43 0.0
28 23:55 S 15 G 26 16.09 Fair CLR 26.4 20 68% 28 76.43 0.0
28 23:35 S 9 16.09 Fair CLR 24.8 20 75% 26 76.4 0.0
28 23:15 Calm 16.09 Fair CLR 25.8 19.3 67% 27 76.4 0.0
28 22:55 Calm 16.09 Fair CLR 26.1 19.3 66% 27 76.38 0.0
28 22:35 Calm 16.09 Fair CLR 26 19.9 69% 27 76.38 0.0
28 22:15 Calm 16.09 Fair CLR 26.1 19.3 66% 27 76.35 0.0
28 21:55 Calm 16.09 Fair CLR 26.1 19.7 68% 27 76.35 0.0
28 21:35 Calm 16.09 Fair CLR 27 18.5 60% 28 76.33 0.0
28 21:15 Calm 16.09 Fair CLR 26.7 19.3 64% 28 76.3 0.0
28 20:55 S 6 16.09 Fair CLR 26.5 19.6 66% 28 76.28 0.0
28 20:35 S 6 16.09 Fair CLR 27.4 21.2 69% 29 76.28 0.0
28 20:15 Calm 16.09 Fair CLR 29.2 17.4 49% 30 76.25 0.0
28 19:55 Calm 16.09 Fair CLR 29.1 18.5 53% 30 76.23 0.0
28 19:35 Calm 16.09 Partly Cloudy SCT003 29.9 18.5 50% 31 76.23 0.0
28 19:15 Calm 16.09 Fair CLR 30.7 17.5 45% 31 76.23 0.0
28 18:55 S 7 16.09 Fair CLR 31 18.1 38.3 25.4 46% 32 76.23 0.0 0.05 0.58
28 18:35 SW 6 16.09 Fair CLR 30.3 17.9 47% 31 76.23 0.0 0.05
28 18:15 S 7 16.09 Fair CLR 29.2 18.5 53% 30 76.28 0.0 0.03
28 17:55 S 17 16.09 Partly Cloudy SCT110 25.9 19.8 69% 27 76.28 0.0 0.2
28 17:35 S 20 16.09 Mostly Cloudy SCT037 SCT060 BKN110 25.7 20.5 73% 27 76.28 0.0 0.15
28 17:15 Calm 16.09 Thunderstorm in Vicinity SCT022 BKN050 OVC075 29.5 20.9 60% 32 76.28 0.0 0.08
28 16:55 NE 19 G 37 4.02 Thunderstorm SCT026 BKN044 OVC080 28.1 19 58% 29 76.3 0.0 0.3
28 16:35 E 35 G 46 16.09 Mostly Cloudy and Breezy BKN080 BKN110 34.5 16.3 34% 35 76.28 0.0
28 16:15 E 13 16.09 Partly Cloudy SCT080 SCT110 37.4 14 25% 37 76.28 0.0
28 15:55 Calm 16.09 Fair CLR 37.1 14.4 26% 37 76.3 0.0
28 15:35 Calm 16.09 Fair CLR 36.6 14.5 27% 36 76.33 0.0
28 15:15 E 11 16.09 Fair CLR 35.5 14.7 29% 35 76.35 0.0
28 14:55 E 13 16.09 Partly Cloudy SCT070 SCT090 35.8 14.8 28% 35 76.38 0.0
28 14:35 E 9 16.09 Partly Cloudy SCT070 SCT090 35.9 16 31% 36 76.38 0.0
28 14:15 E 15 16.09 Fair CLR 35.7 16 31% 36 76.4 0.0
28 13:55 NE 13 16.09 Fair CLR 35.8 16.3 31% 36 76.43 0.0
28 13:35 Calm 16.09 Partly Cloudy SCT060 35.4 16.5 32% 36 76.45 0.0
28 13:15 Calm 16.09 Partly Cloudy SCT060 34.7 16.4 34% 35 76.48 0.0
28 12:55 SE 11 16.09 Partly Cloudy SCT060 34.9 16.9 34.9 21.3 34% 35 76.48 0.0
28 12:35 Calm 16.09 Fair CLR 34.2 16.7 35% 35 76.5 0.0
28 12:15 S 9 16.09 Fair CLR 34 17 36% 35 76.53 0.0
28 11:55 Calm 16.09 Fair CLR 33.1 17 38% 34 76.56 0.0
28 11:35 S 7 16.09 Fair CLR 32.7 17.1 39% 33 76.56 0.0
28 11:15 SE 7 16.09 Fair CLR 32 17.1 41% 32 76.56 0.0
28 10:55 SE 6 16.09 Fair CLR 31.9 17.2 41% 32 76.56 0.0
28 10:35 E 6 16.09 Fair CLR 30.8 17 44% 31 76.56 0.0
28 10:15 Calm 16.09 Fair CLR 30.1 17.4 46% 31 76.56 0.0
28 09:55 S 6 16.09 Fair CLR 29.3 18.1 51% 30 76.53 0.0
28 09:35 SW 6 16.09 Fair CLR 28.3 18.3 55% 29 76.53 0.0
28 09:15 Calm 16.09 Fair CLR 27.2 18.2 58% 28 76.56 0.0
28 08:55 Calm 16.09 Fair CLR 25.8 18.5 64% 27 76.56 0.0
28 08:35 SW 7 16.09 Fair CLR 24.4 18.3 69% 25 76.53 0.0
28 08:15 S 6 16.09 Fair CLR 23.6 18.6 74% 76.5 0.0
28 07:55 SW 6 16.09 Fair CLR 22.1 18.1 78% 76.48 0.0
28 07:35 Calm 16.09 Fair CLR 21.3 17.7 80% 76.45 0.0
28 07:15 Calm 16.09 Fair CLR 22 17.9 78% 76.43 0.0
28 06:55 Calm 16.09 Fair CLR 21.9 18.1 25.1 21.5 79% 76.4 0.0
28 06:35 N 9 16.09 Fair CLR 21.6 18 80% 76.4 0.0
28 06:15 N 6 16.09 Fair CLR 21.5 17.7 79% 76.4 0.0
28 05:55 N 6 16.09 Fair CLR 21.7 17.6 78% 76.4 0.0
28 05:35 N 6 16.09 Fair CLR 21.8 17.8 78% 76.38 0.0
28 05:15 N 6 16.09 Fair CLR 22.1 17.8 77% 76.38 0.0
28 04:55 N 6 16.09 Fair CLR 22.2 18.1 78% 76.38 0.0
28 04:35 N 6 16.09 Fair CLR 22.2 17.7 76% 76.38 0.0
28 04:10 NW 6 16.09 Fair CLR 22.4 17.9 76% 76.35 0.0
28 03:55 Calm 16.09 Fair CLR 22.6 18 75% 76.38 0.0
28 03:35 Calm 16.09 Fair CLR 22.5 17.6 74% 76.4 0.0
28 03:15 Calm 16.09 Fair CLR 23.1 18.1 74% 76.4 0.0
28 02:55 Calm 16.09 Fair CLR 22.9 18 74% 76.43 0.0
28 02:35 Calm 16.09 Fair CLR 23.2 18.1 73% 76.43 0.0
28 02:15 E 7 16.09 Fair CLR 23.2 18.1 73% 76.43 0.0
28 01:55 Calm 16.09 Fair CLR 24.2 18.5 71% 25 76.4 0.0
28 01:35 Calm 16.09 Fair CLR 24.7 18.6 69% 26 76.4 0.0
28 01:15 S 7 16.09 Partly Cloudy SCT090 25 18.7 68% 26 76.4 0.0
28 00:55 SW 9 16.09 Partly Cloudy SCT090 25.2 18.7 35.1 25.2 67% 26 76.4 0.0
28 00:35 S 9 16.09 Fair CLR 25.6 18.6 65% 27 76.4 0.0
28 00:15 S 9 16.09 Fair CLR 25.8 18.5 64% 27 76.4 0.0
27 23:55 SW 13 16.09 Fair CLR 25.7 18.7 65% 27 76.4 0.0
27 23:35 S 13 16.09 Partly Cloudy SCT090 26 18.5 63% 27 76.4 0.0
Date Time (cdt) Wind (kph) Vis. (km) Weather Sky Cond. Air Dwpt Max. Min. Relative Humidity Wind Chill (°C) Heat Index (°C) altimeter (cm) sea level (mb) 1 hr 3 hr 6 hr
6 hour
Temperature (ºC) Pressure Precipitation (cm)